Time;durP1;ratioP1;P1;durP2;ratioP2;P2;SDS_P1;SDS_P2;PMS_P1;PMS_P2;Temp;Humidity;BMP_temperature;BMP_pressure;BME280_temperature;BME280_humidity;BME280_pressure;Samples;Min_cycle;Max_cycle;Signal;HPM_P1;HPM_P2
2023/09/25 00:01:55;;;;;;;3.57;2.50;;;13.00;97.00;;;;;;20824498;28;20800;-64
2023/09/25 00:11:57;;;;;;;2.47;2.27;;;12.90;97.10;;;;;;20828918;28;20642;-65
2023/09/25 00:21:59;;;;;;;4.63;2.70;;;12.90;97.20;;;;;;20859620;28;20204;-65
2023/09/25 00:32:00;;;;;;;4.70;2.93;;;12.80;97.00;;;;;;20906831;28;20264;-65
2023/09/25 00:42:02;;;;;;;2.87;2.40;;;12.70;97.40;;;;;;20926311;28;20217;-64
2023/09/25 00:52:04;;;;;;;2.77;2.20;;;12.60;97.30;;;;;;20913409;28;20335;-64
2023/09/25 01:02:06;;;;;;;2.27;2.00;;;12.40;97.40;;;;;;20910937;28;20237;-65
2023/09/25 01:12:08;;;;;;;3.70;2.57;;;12.30;97.50;;;;;;20923807;28;20247;-64
2023/09/25 01:22:10;;;;;;;3.27;2.40;;;12.20;97.60;;;;;;20923568;28;20207;-64
2023/09/25 01:32:12;;;;;;;4.77;2.60;;;12.10;97.70;;;;;;20921379;28;20257;-65
2023/09/25 01:42:14;;;;;;;3.20;2.23;;;12.00;97.80;;;;;;20921596;28;20203;-66
2023/09/25 01:52:17;;;;;;;4.13;2.30;;;11.90;98.00;;;;;;20921226;28;20247;-66
2023/09/25 02:02:19;;;;;;;3.60;2.50;;;11.80;98.00;;;;;;20920160;28;20209;-66
2023/09/25 02:12:21;;;;;;;20.93;4.40;;;11.70;98.00;;;;;;20919222;28;20336;-66
2023/09/25 02:22:22;;;;;;;69.77;5.10;;;11.60;98.50;;;;;;20918931;28;20211;-66
2023/09/25 02:32:24;;;;;;;13.80;4.70;;;11.40;98.70;;;;;;20917522;28;20600;-67
2023/09/25 02:42:26;;;;;;;41.73;5.70;;;11.50;99.40;;;;;;20916930;28;20210;-66
2023/09/25 02:52:28;;;;;;;30.47;4.97;;;11.40;99.60;;;;;;20916340;28;20764;-66
2023/09/25 03:02:30;;;;;;;12.00;5.00;;;11.50;99.90;;;;;;20915577;28;20722;-65
2023/09/25 03:12:31;;;;;;;13.20;4.60;;;11.60;99.90;;;;;;20914643;28;20237;-66
2023/09/25 03:22:35;;;;;;;56.37;5.33;;;11.60;99.90;;;;;;20914357;28;20298;-65
2023/09/25 03:32:37;;;;;;;7.70;4.20;;;11.60;99.90;;;;;;20913151;28;20244;-65
2023/09/25 03:42:42;;;;;;;6.13;4.50;;;11.30;99.90;;;;;;20912828;28;20212;-64
2023/09/25 03:52:44;;;;;;;8.47;4.90;;;11.30;99.90;;;;;;20912117;28;20273;-65
2023/09/25 04:02:46;;;;;;;9.63;4.80;;;11.30;99.90;;;;;;20911929;28;20314;-64
2023/09/25 04:12:48;;;;;;;13.43;4.40;;;11.30;99.90;;;;;;20911693;28;20301;-65
2023/09/25 04:22:52;;;;;;;5.30;4.57;;;11.10;99.90;;;;;;20911694;28;20214;-64
2023/09/25 04:32:54;;;;;;;6.67;4.23;;;11.00;99.90;;;;;;20910549;28;20717;-65
2023/09/25 04:42:57;;;;;;;8.50;5.10;;;11.10;99.90;;;;;;20910428;28;20206;-64
2023/09/25 04:52:58;;;;;;;71.67;6.00;;;11.20;99.90;;;;;;20910193;28;20245;-64
2023/09/25 05:03:00;;;;;;;15.07;5.50;;;11.30;99.90;;;;;;20889427;28;20662;-63
2023/09/25 05:13:03;;;;;;;11.07;5.20;;;11.10;99.90;;;;;;20889011;28;20243;-63
2023/09/25 05:23:05;;;;;;;12.17;5.17;;;11.00;99.90;;;;;;20923320;28;20216;-63
2023/09/25 05:33:07;;;;;;;16.03;7.17;;;11.00;99.90;;;;;;20921944;28;20249;-62
2023/09/25 05:43:09;;;;;;;33.50;8.03;;;11.00;99.90;;;;;;20920347;28;20567;-64
2023/09/25 05:53:10;;;;;;;18.77;6.60;;;11.10;99.90;;;;;;20918276;28;20700;-63
2023/09/25 06:03:13;;;;;;;27.30;7.60;;;11.10;99.90;;;;;;20912338;28;20202;-63
2023/09/25 06:13:15;;;;;;;13.27;6.50;;;11.10;99.90;;;;;;20868847;28;20299;-62
2023/09/25 06:23:16;;;;;;;15.53;6.67;;;11.10;99.90;;;;;;20917666;28;20211;-63
2023/09/25 06:33:18;;;;;;;24.97;7.13;;;11.10;99.90;;;;;;20916653;28;20295;-64
2023/09/25 06:43:20;;;;;;;13.23;7.13;;;11.30;99.90;;;;;;20916343;28;20201;-63
2023/09/25 06:53:22;;;;;;;21.33;8.40;;;11.30;99.90;;;;;;20915816;28;20334;-64
2023/09/25 07:03:23;;;;;;;34.13;9.47;;;11.40;99.90;;;;;;20914560;28;20209;-63
2023/09/25 07:13:26;;;;;;;21.43;8.87;;;11.40;99.90;;;;;;20913785;28;20238;-63
2023/09/25 07:23:28;;;;;;;16.57;8.17;;;11.70;99.90;;;;;;20913916;28;20215;-63
2023/09/25 07:33:30;;;;;;;15.73;7.50;;;12.00;99.90;;;;;;20911947;28;20244;-64
2023/09/25 07:43:32;;;;;;;20.00;8.43;;;12.30;99.90;;;;;;20912397;28;20743;-64
2023/09/25 07:53:39;;;;;;;12.80;6.93;;;12.50;99.90;;;;;;20912026;28;20246;-63
2023/09/25 08:03:41;;;;;;;27.30;9.57;;;12.90;99.90;;;;;;20911397;28;20210;-63
2023/09/25 08:13:43;;;;;;;24.53;9.40;;;13.40;99.90;;;;;;20910977;28;20245;-63
2023/09/25 08:23:45;;;;;;;17.07;6.73;;;13.70;99.80;;;;;;20910971;28;20211;-63
2023/09/25 08:33:46;;;;;;;9.93;6.53;;;14.10;99.30;;;;;;20909705;28;20239;-64
2023/09/25 08:43:48;;;;;;;16.97;6.20;;;14.70;98.90;;;;;;20921232;28;20200;-64
2023/09/25 08:53:51;;;;;;;9.10;5.43;;;14.90;98.10;;;;;;20925208;28;20235;-63
2023/09/25 09:03:53;;;;;;;7.10;4.50;;;15.40;97.60;;;;;;20911669;28;20210;-64
2023/09/25 09:13:55;;;;;;;10.67;4.37;;;15.70;97.00;;;;;;20892677;28;20244;-64
2023/09/25 09:23:59;;;;;;;7.33;3.87;;;16.10;96.30;;;;;;20922777;28;20294;-64
2023/09/25 09:34:03;;;;;;;5.87;3.80;;;16.40;95.60;;;;;;20921520;28;20250;-63
2023/09/25 09:44:06;;;;;;;11.00;3.77;;;16.80;94.90;;;;;;20921170;28;20624;-64
2023/09/25 09:54:10;;;;;;;7.60;6.03;;;17.10;94.10;;;;;;20919891;28;20329;-64
2023/09/25 10:04:13;;;;;;;11.50;6.00;;;17.40;93.30;;;;;;20919423;28;20210;-64
2023/09/25 10:14:22;;;;;;;9.70;4.97;;;17.60;92.40;;;;;;20918723;28;20242;-64
2023/09/25 10:24:25;;;;;;;8.20;3.40;;;17.90;91.30;;;;;;20918243;28;20238;-64
2023/09/25 10:34:29;;;;;;;6.97;2.80;;;18.10;90.40;;;;;;20917249;28;20273;-63
2023/09/25 10:44:31;;;;;;;4.33;3.00;;;18.30;89.20;;;;;;20901977;28;20207;-63
2023/09/25 10:54:34;;;;;;;3.47;2.30;;;18.50;87.10;;;;;;20882035;28;20240;-63
2023/09/25 11:04:36;;;;;;;4.83;3.30;;;18.60;85.20;;;;;;20914532;28;20204;-63
2023/09/25 11:14:38;;;;;;;3.80;2.73;;;18.80;83.00;;;;;;20913946;28;20726;-64
2023/09/25 11:24:40;;;;;;;4.13;2.13;;;19.00;81.30;;;;;;20913198;28;20226;-64
2023/09/25 11:34:43;;;;;;;7.63;2.47;;;19.30;79.80;;;;;;20912193;28;20242;-64
2023/09/25 11:44:45;;;;;;;3.23;2.20;;;19.50;78.10;;;;;;20894485;28;20682;-63
2023/09/25 11:54:48;;;;;;;3.07;2.17;;;19.80;75.60;;;;;;20911436;28;20247;-63
2023/09/25 12:04:53;;;;;;;4.33;2.37;;;20.20;73.30;;;;;;20911468;28;20208;-63
2023/09/25 12:14:58;;;;;;;6.40;3.43;;;20.50;71.60;;;;;;20916883;28;20235;-65
2023/09/25 12:25:00;;;;;;;2.90;2.03;;;20.60;70.10;;;;;;20909303;28;20294;-64
2023/09/25 12:35:03;;;;;;;6.77;2.20;;;20.90;68.60;;;;;;20926773;28;20236;-63
2023/09/25 12:45:06;;;;;;;6.87;2.90;;;21.10;67.40;;;;;;20925326;28;20223;-65
2023/09/25 12:55:08;;;;;;;2.97;2.10;;;21.20;65.70;;;;;;20921913;28;20246;-66
2023/09/25 13:05:11;;;;;;;3.00;2.20;;;21.40;64.50;;;;;;20922860;28;20203;-65
2023/09/25 13:15:19;;;;;;;3.17;2.10;;;21.60;63.70;;;;;;20923940;28;20232;-65
2023/09/25 13:36:49;;;;;;;3.67;2.20;;;21.70;62.00;;;;;;20852798;28;20287;-63
2023/09/25 13:46:54;;;;;;;2.10;1.90;;;21.70;60.70;;;;;;20848065;28;20209;-62
2023/09/25 13:56:56;;;;;;;4.53;2.30;;;21.90;60.10;;;;;;20868991;28;20246;-60
2023/09/25 14:06:58;;;;;;;5.90;2.17;;;22.40;59.60;;;;;;20901844;28;20300;-61
2023/09/25 14:17:00;;;;;;;2.97;1.73;;;22.90;58.20;;;;;;20913285;28;20801;-61
2023/09/25 14:27:02;;;;;;;3.60;2.10;;;;;;;;;;20864930;28;20212;-62
2023/09/25 14:37:04;;;;;;;3.70;2.00;;;;;;;;;;20834382;28;20614;-65
2023/09/25 14:47:07;;;;;;;10.03;2.30;;;;;;;;;;20834164;28;20657;-63
2023/09/25 14:57:09;;;;;;;5.03;2.50;;;;;;;;;;20846604;28;20254;-64
2023/09/25 15:07:11;;;;;;;3.70;2.10;;;23.30;57.00;;;;;;20848858;28;20291;-63
2023/09/25 15:17:12;;;;;;;4.70;2.27;;;23.60;54.00;;;;;;20832190;28;20237;-63
2023/09/25 15:27:14;;;;;;;3.70;2.23;;;23.20;54.50;;;;;;20831339;28;20208;-63
2023/09/25 15:37:16;;;;;;;5.10;2.10;;;23.00;54.80;;;;;;20829916;28;20244;-62
2023/09/25 15:47:20;;;;;;;3.27;2.37;;;22.60;55.30;;;;;;20828635;28;20209;-63
2023/09/25 15:57:22;;;;;;;6.33;2.20;;;22.30;55.80;;;;;;20880354;28;20249;-62
2023/09/25 16:07:26;;;;;;;4.27;2.20;;;22.10;56.40;;;;;;20829614;28;20205;-63
2023/09/25 16:17:27;;;;;;;7.10;2.50;;;21.80;56.90;;;;;;20828320;28;20267;-62
2023/09/25 16:27:30;;;;;;;3.60;2.27;;;21.70;57.70;;;;;;20826217;28;20251;-70
2023/09/25 16:37:32;;;;;;;7.17;2.20;;;21.40;58.20;;;;;;20827583;28;20584;-65
2023/09/25 16:47:34;;;;;;;5.13;2.77;;;21.20;58.70;;;;;;20827862;28;20212;-63
2023/09/25 16:57:36;;;;;;;7.30;4.00;;;21.00;59.10;;;;;;20827559;28;20240;-80
2023/09/25 17:07:38;;;;;;;7.33;4.13;;;20.80;59.90;;;;;;20842772;28;20228;-72
2023/09/25 17:17:40;;;;;;;5.87;2.90;;;20.60;61.30;;;;;;20864517;28;20232;-68
2023/09/25 17:27:42;;;;;;;6.07;2.70;;;20.30;62.80;;;;;;20907933;28;20250;-69
2023/09/25 17:37:44;;;;;;;7.60;4.47;;;20.00;64.20;;;;;;20847991;28;20287;-67
2023/09/25 17:47:46;;;;;;;6.70;4.17;;;19.80;65.50;;;;;;20898948;28;20235;-67
2023/09/25 17:57:48;;;;;;;14.60;6.83;;;19.50;66.70;;;;;;20886726;28;20239;-68
2023/09/25 18:07:50;;;;;;;7.17;3.20;;;19.30;67.90;;;;;;20836934;28;20273;-67
2023/09/25 18:17:51;;;;;;;10.43;4.30;;;19.00;69.20;;;;;;20835663;28;20241;-68
2023/09/25 18:27:53;;;;;;;7.03;2.67;;;18.70;70.80;;;;;;20878744;28;20264;-68
2023/09/25 18:37:55;;;;;;;5.97;3.20;;;18.50;71.90;;;;;;20916834;28;20242;-70
2023/09/25 18:47:57;;;;;;;10.80;4.90;;;18.30;73.20;;;;;;20915356;28;20377;-68
2023/09/25 18:57:59;;;;;;;4.83;3.57;;;18.10;75.10;;;;;;20915374;28;20250;-69
2023/09/25 19:08:02;;;;;;;8.60;5.87;;;17.80;76.40;;;;;;20915025;28;20211;-68
2023/09/25 19:18:04;;;;;;;7.67;5.00;;;17.60;77.50;;;;;;20863983;28;20671;-68
2023/09/25 19:28:08;;;;;;;8.17;3.80;;;17.50;78.50;;;;;;20830314;28;20211;-66
2023/09/25 19:38:10;;;;;;;6.43;4.67;;;17.30;80.00;;;;;;20830964;28;20260;-67
2023/09/25 19:48:11;;;;;;;7.90;4.10;;;17.10;81.60;;;;;;20835682;28;20209;-66
2023/09/25 19:58:13;;;;;;;6.43;3.70;;;16.90;83.20;;;;;;20844908;28;20247;-70
2023/09/25 20:08:15;;;;;;;9.23;3.93;;;16.70;85.20;;;;;;20829276;28;20681;-68
2023/09/25 20:18:21;;;;;;;7.30;4.10;;;16.50;87.20;;;;;;20829386;28;20230;-69
2023/09/25 20:28:22;;;;;;;4.23;3.63;;;16.40;88.90;;;;;;20828668;28;20291;-69
2023/09/25 20:38:24;;;;;;;6.60;3.77;;;16.20;90.20;;;;;;20844913;28;20269;-69
2023/09/25 20:48:26;;;;;;;6.57;4.70;;;16.10;90.90;;;;;;20880394;28;20628;-70
2023/09/25 20:58:28;;;;;;;5.43;4.40;;;16.00;91.60;;;;;;20876277;28;20318;-68
2023/09/25 21:08:30;;;;;;;6.70;4.40;;;15.80;92.20;;;;;;20841983;28;20244;-68
2023/09/25 21:18:32;;;;;;;8.00;4.20;;;15.70;92.90;;;;;;20915017;28;20227;-69
2023/09/25 21:28:34;;;;;;;5.43;4.10;;;15.50;93.50;;;;;;20902591;28;20822;-69
2023/09/25 21:38:36;;;;;;;7.30;4.30;;;15.40;93.90;;;;;;20874056;28;20321;-69
2023/09/25 21:48:39;;;;;;;6.97;4.20;;;15.20;94.50;;;;;;20890350;28;20215;-68
2023/09/25 21:58:41;;;;;;;4.80;4.00;;;15.20;95.10;;;;;;20837267;28;20270;-67
2023/09/25 22:08:43;;;;;;;4.77;3.90;;;15.10;95.40;;;;;;20835539;28;20204;-66
2023/09/25 22:18:44;;;;;;;7.60;4.33;;;14.80;95.90;;;;;;20836793;28;20228;-66
2023/09/25 22:28:46;;;;;;;13.53;5.10;;;14.80;96.30;;;;;;20835602;28;20216;-66
2023/09/25 22:38:48;;;;;;;8.07;4.67;;;14.80;96.50;;;;;;20835145;28;20233;-66
2023/09/25 22:48:50;;;;;;;5.00;4.50;;;14.60;96.90;;;;;;20834657;28;20270;-67
2023/09/25 22:58:51;;;;;;;6.20;4.47;;;14.60;97.20;;;;;;20833126;28;20236;-66
2023/09/25 23:08:53;;;;;;;6.90;4.73;;;14.60;97.30;;;;;;20832717;28;20692;-68
2023/09/25 23:18:55;;;;;;;6.70;4.70;;;14.50;97.50;;;;;;20832433;28;20239;-67
2023/09/25 23:28:57;;;;;;;7.20;4.90;;;14.30;97.80;;;;;;20831162;28;20240;-69
2023/09/25 23:38:58;;;;;;;4.60;3.90;;;14.30;97.80;;;;;;20869108;28;20233;-70
2023/09/25 23:49:00;;;;;;;9.13;5.00;;;14.20;98.00;;;;;;20830526;28;20210;-70
2023/09/25 23:59:02;;;;;;;5.00;4.20;;;14.20;98.30;;;;;;20829629;28;20232;-68
